Data for 06/20/2006

Time Sea-Level Adjusted Pressure Absolute Pressure Temperature Relative Humidity Dew Point   
(mb) (inHg) (mb) (inHg) (C) (F) (%) (C) (F)
00:05 1019 30.09 848 25.04 9.7 49.5 85 7.3 45.1
00:10 1019 30.09 848 25.04 9.8 49.6 84 7.2 45
00:15 1018 30.06 848 25.04 9.9 49.7 83 7.2 45
00:20 1018 30.06 848 25.04 9.9 49.9 83 7.3 45.1
00:25 1018 30.06 848 25.04 9.9 49.7 84 7.3 45.1
00:30 1018 30.06 848 25.04 9.8 49.7 84 7.2 44.9
00:35 1019 30.09 848 25.04 10 49.9 82 7.1 44.8
00:40 1019 30.09 848 25.04 10 49.9 81 6.9 44.5
00:45 1019 30.09 848 25.04 10.1 50.1 81 7 44.7
00:50 1019 30.09 848 25.04 10 50 81 6.9 44.4
00:55 1019 30.09 848 25.04 10 49.9 82 7 44.7
01:00 1019 30.09 848 25.04 9.9 49.7 83 7.1 44.7
01:05 1018 30.06 848 25.04 9.6 49.3 84 7 44.6
01:10 1018 30.06 848 25.04 9.4 49 84 6.9 44.4
01:15 1019 30.09 848 25.04 9.4 49 84 6.9 44.4
01:20 1019 30.09 848 25.04 9.5 49.2 83 6.8 44.2
01:25 1019 30.09 848 25.04 9.8 49.6 82 6.8 44.2
01:30 1019 30.09 848 25.04 10.1 50.1 80 6.8 44.3
01:35 1019 30.09 848 25.04 10 50.1 81 6.9 44.4
01:40 1019 30.09 848 25.04 9.9 49.9 82 7 44.5
01:45 1019 30.09 848 25.04 9.9 49.8 81 6.8 44.2
01:50 1019 30.09 848 25.04 10 50 80 6.8 44.2
01:55 1019 30.09 848 25.04 9.8 49.7 81 6.8 44.3
02:00 1019 30.09 848 25.04 9.8 49.6 81 6.7 44
02:05 1019 30.09 848 25.04 9.6 49.2 83 6.8 44.2
02:10 1019 30.09 848 25.04 9.2 48.6 84 6.6 43.9
02:15 1019 30.09 848 25.04 9.1 48.4 85 6.7 44.1
02:20 1019 30.09 848 25.04 8.9 48 85 6.6 43.9
02:25 1019 30.09 848 25.04 8.9 48 85 6.6 43.8
02:30 1019 30.09 848 25.04 8.8 47.8 86 6.5 43.7
02:35 1019 30.09 848 25.04 8.6 47.5 87 6.5 43.7
02:40 1019 30.09 848 25.04 8.3 47 87 6.3 43.4
02:45 1019 30.09 848 25.04 8.2 46.8 88 6.3 43.4
02:50 1019 30.09 848 25.04 8.3 46.9 87 6.3 43.4
02:55 1019 30.09 848 25.04 8.3 47 87 6.3 43.4
03:00 1019 30.09 848 25.04 8.5 47.2 86 6.3 43.3
03:05 1019 30.09 848 25.04 8.4 47 87 6.3 43.4
03:10 1019 30.09 848 25.04 8.4 47.1 87 6.3 43.3
03:15 1019 30.09 848 25.04 8.7 47.6 85 6.3 43.4
03:20 1019 30.09 848 25.04 8.9 48.1 85 6.5 43.8
03:25 1019 30.09 848 25.04 8.9 48.1 85 6.6 43.9
03:30 1019 30.09 848 25.04 8.7 47.7 86 6.5 43.7
03:35 1019 30.09 848 25.04 8.7 47.6 86 6.4 43.6
03:40 1019 30.09 848 25.04 8.6 47.4 87 6.5 43.7
03:45 1019 30.09 848 25.04 8.4 47.1 88 6.5 43.6
03:50 1019 30.09 848 25.04 8.4 47.1 88 6.5 43.7
03:55 1019 30.09 848 25.04 8.5 47.2 87 6.5 43.7
04:00 1019 30.09 848 25.04 8.6 47.5 86 6.5 43.6
04:05 1019 30.09 848 25.04 8.8 47.8 86 6.5 43.7
04:10 1019 30.09 848 25.04 8.9 48.1 85 6.6 43.9
04:15 1019 30.09 848 25.04 9 48.1 85 6.6 43.8
04:20 1019 30.09 848 25.04 9 48.3 85 6.7 44
04:25 1019 30.09 848 25.04 9 48.1 85 6.6 44
04:30 1019 30.09 848 25.04 8.8 47.8 87 6.7 44.1
04:35 1019 30.09 848 25.04 8.7 47.7 87 6.7 44
04:40 1019 30.09 848 25.04 8.8 47.9 86 6.7 44
04:45 1019 30.09 848 25.04 8.9 48 86 6.8 44.2
04:50 1019 30.09 848 25.04 9 48.1 86 6.8 44.3
04:55 1019 30.09 848 25.04 9 48.3 86 6.8 44.3
05:00 1019 30.09 848 25.04 9.2 48.5 85 6.8 44.3
05:05 1019 30.09 848 25.04 9.2 48.6 85 6.9 44.4
05:10 1019 30.09 849 25.07 9.3 48.7 85 6.9 44.4
05:15 1019 30.09 849 25.07 9.3 48.7 85 7 44.5
05:20 1019 30.09 849 25.07 9.3 48.8 85 6.9 44.4
05:25 1019 30.09 849 25.07 9.4 48.9 85 7 44.6
05:30 1019 30.09 849 25.07 9.4 48.9 84 6.9 44.4
05:35 1019 30.09 849 25.07 9.6 49.3 84 7 44.5
05:40 1019 30.09 849 25.07 9.5 49 85 7 44.7
05:45 1019 30.09 849 25.07 9.1 48.4 87 7 44.6
05:50 1019 30.09 849 25.07 9.1 48.4 86 6.9 44.5
05:55 1019 30.09 849 25.07 9.1 48.3 87 7 44.5
06:00 1019 30.09 849 25.07 9 48.2 87 7 44.5
06:05 1019 30.09 848 25.04 8.8 47.8 88 6.8 44.3
06:10 1019 30.09 849 25.07 8.8 47.8 86 6.6 44
06:15 1019 30.09 849 25.07 9 48.2 85 6.6 44
06:20 1019 30.09 849 25.07 9.2 48.6 84 6.6 43.9
06:25 1019 30.09 849 25.07 9.3 48.7 83 6.6 43.9
06:30 1019 30.09 849 25.07 9.6 49.3 82 6.6 43.9
06:35 1020 30.12 849 25.07 10 50 80 6.7 44.1
06:40 1020 30.12 849 25.07 10.1 50.2 81 7 44.6
06:45 1020 30.12 849 25.07 10.1 50.1 81 7 44.6
06:50 1020 30.12 849 25.07 10.1 50.1 82 7.1 44.8
06:55 1020 30.12 849 25.07 10 50 84 7.4 45.2
07:00 1020 30.12 849 25.07 10 50 84 7.4 45.2
07:05 1020 30.12 849 25.07 10.3 50.5 82 7.3 45.2
07:10 1020 30.12 849 25.07 10.3 50.5 81 7.3 45.1
07:15 1020 30.12 849 25.07 10.9 51.6 77 7.1 44.7
07:20 1020 30.12 849 25.07 11.4 52.5 76 7.4 45.4
07:25 1020 30.12 849 25.07 11.6 52.9 77 7.7 45.8
07:30 1020 30.12 849 25.07 11.7 53 75 7.4 45.3
07:35 1020 30.12 849 25.07 12.1 53.8 71 7.1 44.7
07:40 1020 30.12 849 25.07 12.6 54.7 69 7.1 44.8
07:45 1020 30.12 849 25.07 12.8 55 70 7.5 45.6
07:50 1020 30.12 849 25.07 12.8 55 70 7.6 45.6
07:55 1020 30.12 849 25.07 12.9 55.2 71 7.8 46.1
08:00 1020 30.12 849 25.07 13.4 56.1 67 7.5 45.6
08:05 1020 30.12 849 25.07 13.9 57.1 67 7.9 46.2
08:10 1020 30.12 849 25.07 14.3 57.8 65 8 46.3
08:15 1020 30.12 849 25.07 14.6 58.2 65 8.2 46.7
08:20 1020 30.12 849 25.07 14.3 57.8 66 8 46.4
08:25 1020 30.12 849 25.07 14.7 58.4 64 8.1 46.6
08:30 1020 30.12 849 25.07 14.8 58.6 62 7.7 45.9
08:35 1020 30.12 849 25.07 14.5 58.2 64 8 46.3
08:40 1020 30.12 849 25.07 14.8 58.6 62 7.7 45.9
08:45 1020 30.12 849 25.07 15.1 59.2 62 8 46.4
08:50 1020 30.12 849 25.07 15.2 59.3 65 8.7 47.6
08:55 1020 30.12 849 25.07 14.9 58.9 62 7.9 46.2
09:00 1020 30.12 849 25.07 15.3 59.6 60 7.8 46
09:05 1020 30.12 849 25.07 15.5 59.9 60 7.8 46.1
09:10 1020 30.12 849 25.07 15.2 59.3 60 7.5 45.5
09:15 1020 30.12 849 25.07 15.2 59.3 63 8.3 46.9
09:20 1020 30.12 849 25.07 15.4 59.6 60 7.7 45.8
09:25 1020 30.12 849 25.07 15.2 59.4 61 7.9 46.3
09:30 1020 30.12 849 25.07 14.7 58.5 65 8.2 46.7
09:35 1020 30.12 849 25.07 15.2 59.3 58 7.1 44.8
09:40 1020 30.12 849 25.07 15.8 60.4 53 6.3 43.3
09:45 1020 30.12 849 25.07 15.9 60.7 52 6.1 43.1
09:50 1020 30.12 849 25.07 15.5 59.8 55 6.5 43.6
09:55 1020 30.12 849 25.07 15.7 60.3 54 6.5 43.7
10:00 1020 30.12 849 25.07 16 60.8 52 6.3 43.3
10:05 1020 30.12 849 25.07 15.9 60.6 51 5.9 42.7
10:10 1020 30.12 849 25.07 16.3 61.4 48 5.3 41.6
10:15 1020 30.12 849 25.07 16.5 61.7 47 5.3 41.5
10:20 1020 30.12 849 25.07 16.7 62 48 5.8 42.5
10:25 1020 30.12 849 25.07 16.7 62.1 50 6.4 43.4
10:30 1020 30.12 849 25.07 16.7 62 49 6 42.9
10:35 1020 30.12 849 25.07 16.8 62.2 48 5.9 42.6
10:40 1020 30.12 849 25.07 16.4 61.6 50 6.1 43
10:45 1020 30.12 849 25.07 16.5 61.7 50 6 42.8
10:50 1020 30.12 849 25.07 16.6 61.9 49 6.1 42.9
10:55 1020 30.12 849 25.07 17.2 63 47 5.9 42.7
11:00 1020 30.12 849 25.07 17.5 63.4 48 6.4 43.6
11:05 1020 30.12 849 25.07 16.8 62.2 48 5.7 42.2
11:10 1020 30.12 849 25.07 16.8 62.2 47 5.6 42.1
11:15 1020 30.12 849 25.07 17.2 63 46 5.5 41.9
11:20 1020 30.12 849 25.07 17.5 63.5 47 6.2 43.2
11:25 1020 30.12 849 25.07 17.7 63.9 45 5.7 42.3
11:30 1020 30.12 849 25.07 17.7 63.9 47 6.2 43.2
11:35 1020 30.12 849 25.07 18 64.5 45 6 42.9
11:40 1020 30.12 849 25.07 17.9 64.2 46 6.1 43
11:45 1020 30.12 849 25.07 17.5 63.6 47 6.2 43.2
11:50 1020 30.12 849 25.07 17.8 64 45 5.8 42.5
11:55 1020 30.12 849 25.07 18.1 64.5 46 6.4 43.5
12:00 1020 30.12 849 25.07 18.9 66 43 6 42.8
12:05 1020 30.12 849 25.07 18.5 65.2 42 5.4 41.7
12:10 1020 30.12 849 25.07 18.4 65.1 44 6.2 43.2
12:15 1020 30.12 849 25.07 18.5 65.4 44 6.1 42.9
12:20 1020 30.12 849 25.07 19 66.3 41 5.6 42.1
12:25 1020 30.12 849 25.07 19.2 66.5 41 5.8 42.5
12:30 1020 30.12 849 25.07 18.8 65.8 43 6.1 42.9
12:35 1020 30.12 849 25.07 18.5 65.3 45 6.4 43.6
12:40 1020 30.12 849 25.07 18.8 65.8 43 6.2 43.2
12:45 1020 30.12 849 25.07 18.9 66 43 6 42.9
12:50 1020 30.12 849 25.07 18.8 65.8 40 5.2 41.3
12:55 1020 30.12 849 25.07 18.3 64.9 44 6.1 42.9
13:00 1020 30.12 849 25.07 19 66.1 42 5.8 42.4
13:05 1019 30.09 849 25.07 19.2 66.5 39 4.9 40.9
13:10 1019 30.09 849 25.07 19.5 67.1 39 5.4 41.7
13:15 1019 30.09 849 25.07 19.3 66.8 38 4.8 40.7
13:20 1019 30.09 849 25.07 19.8 67.6 35 3.9 39
13:25 1019 30.09 849 25.07 19.6 67.3 33 3.2 37.8
13:30 1019 30.09 849 25.07 19.8 67.6 31 2.5 36.5
13:35 1019 30.09 849 25.07 19.6 67.2 33 3.2 37.7
13:40 1019 30.09 849 25.07 20 68 31 2.6 36.6
13:45 1019 30.09 848 25.04 20.2 68.3 32 3 37.4
13:50 1019 30.09 849 25.07 19.8 67.6 31 2.1 35.8
13:55 1019 30.09 849 25.07 19.6 67.3 31 2.1 35.7
14:00 1019 30.09 849 25.07 19.3 66.7 31 1.9 35.4
14:05 1019 30.09 849 25.07 19.5 67 31 2.2 35.9
14:10 1019 30.09 848 25.04 20.1 68.1 30 2.2 36
14:15 1019 30.09 848 25.04 19.7 67.5 32 2.8 37
14:20 1019 30.09 848 25.04 19.6 67.3 31 2.2 35.9
14:25 1019 30.09 848 25.04 19.9 67.8 30 1.9 35.4
14:30 1019 30.09 848 25.04 20.8 69.4 27 1.3 34.3
14:35 1019 30.09 848 25.04 20.6 69.2 28 1.6 34.9
14:40 1019 30.09 848 25.04 20.6 69 28 1.4 34.6
14:45 1019 30.09 848 25.04 20.7 69.3 27 1 33.8
14:50 1019 30.09 848 25.04 20.6 69.1 27 1.2 34.2
14:55 1019 30.09 848 25.04 20.9 69.6 26 0.7 33.2
15:00 1019 30.09 848 25.04 21 69.8 24 -0.1 31.8
15:05 1019 30.09 848 25.04 20.8 69.4 25 0.4 32.7
15:10 1019 30.09 848 25.04 21 69.8 25 0.5 32.9
15:15 1019 30.09 848 25.04 21.1 70 24 -0.1 31.9
15:20 1019 30.09 848 25.04 21 69.7 24 -0.1 31.8
15:25 1019 30.09 848 25.04 21.3 70.3 24 -0 32
15:30 1019 30.09 848 25.04 21 69.8 24 -0 31.9
15:35 1019 30.09 848 25.04 21.4 70.5 25 0.5 32.8
15:40 1019 30.09 848 25.04 21.5 70.7 22 -0.9 30.5
15:45 1019 30.09 848 25.04 20.6 69 24 -0.7 30.8
15:50 1019 30.09 848 25.04 20.9 69.6 23 -0.7 30.8
15:55 1019 30.09 848 25.04 20.7 69.3 23 -1.2 29.8
16:00 1019 30.09 848 25.04 20.8 69.5 23 -0.9 30.3
16:05 1019 30.09 848 25.04 20.7 69.3 23 -0.8 30.6
16:10 1019 30.09 848 25.04 21.2 70.2 23 -0.5 31
16:15 1019 30.09 848 25.04 20.9 69.6 24 -0.1 31.7
16:20 1019 30.09 848 25.04 20.9 69.7 23 -0.6 30.9
16:25 1019 30.09 848 25.04 20.6 69.1 23 -0.8 30.5
16:30 1019 30.09 848 25.04 21.4 70.5 23 -0.7 30.8
16:35 1019 30.09 848 25.04 21.3 70.4 22 -0.9 30.4
16:40 1019 30.09 848 25.04 21.4 70.5 22 -0.9 30.3
16:45 1019 30.09 848 25.04 21.2 70.1 23 -0.7 30.7
16:50 1019 30.09 848 25.04 21.5 70.7 21 -1.5 29.3
16:55 1019 30.09 848 25.04 22 71.6 21 -0.9 30.3
17:00 1019 30.09 848 25.04 22.2 72 21 -1 30.1
17:05 1019 30.09 848 25.04 21.7 71 22 -0.9 30.5
17:10 1019 30.09 848 25.04 21.6 70.8 22 -0.8 30.6
17:15 1019 30.09 848 25.04 22.1 71.8 21 -1.3 29.7
17:20 1019 30.09 848 25.04 22.3 72.1 23 0.2 32.4
17:25 1019 30.09 848 25.04 21.8 71.2 22 -0.4 31.2
17:30 1019 30.09 848 25.04 21.1 70 23 -0.7 30.7
17:35 1019 30.09 848 25.04 21 69.8 23 -0.9 30.4
17:40 1019 30.09 848 25.04 21.6 70.9 21 -1.7 28.9
17:45 1019 30.09 848 25.04 22.2 72 21 -0.9 30.4
17:50 1019 30.09 848 25.04 22.2 72 20 -1.3 29.6
17:55 1019 30.09 848 25.04 21.4 70.5 22 -1 30.1
18:00 1019 30.09 848 25.04 21.8 71.2 20 -1.8 28.8
18:05 1019 30.09 848 25.04 22 71.7 21 -1.2 29.8
18:10 1019 30.09 848 25.04 21.9 71.4 20 -1.7 29
18:15 1019 30.09 848 25.04 21.6 70.8 22 -0.8 30.5
18:20 1019 30.09 848 25.04 20.6 69.1 25 -0.1 31.8
18:25 1019 30.09 848 25.04 20.3 68.6 23 -1.4 29.5
18:30 1019 30.09 848 25.04 20 68 24 -1.1 30
18:35 1018 30.06 848 25.04 20.1 68.2 24 -1.2 29.9
18:40 1019 30.09 848 25.04 20 68 23 -1.4 29.5
18:45 1019 30.09 848 25.04 19.6 67.2 23 -2 28.5
18:50 1019 30.09 848 25.04 19.4 66.8 24 -1.3 29.7
18:55 1019 30.09 848 25.04 19.8 67.7 22 -2.1 28.3
19:00 1019 30.09 848 25.04 19.7 67.4 24 -1.3 29.7
19:05 1019 30.09 848 25.04 19.9 67.7 23 -1.7 28.9
19:10 1019 30.09 848 25.04 19.5 67 23 -1.8 28.7
19:15 1019 30.09 848 25.04 19.2 66.5 24 -1.8 28.8
19:20 1019 30.09 848 25.04 19.5 67 24 -1.6 29.1
19:25 1019 30.09 848 25.04 19.6 67.3 24 -1.5 29.3
19:30 1019 30.09 848 25.04 19.4 66.9 24 -1.6 29.2
19:35 1019 30.09 848 25.04 19 66.2 25 -1.4 29.4
19:40 1019 30.09 848 25.04 18.9 65.9 25 -1.6 29.2
19:45 1019 30.09 848 25.04 18.9 65.9 26 -1 30.2
19:50 1019 30.09 848 25.04 18.7 65.6 25 -1.5 29.3
19:55 1019 30.09 848 25.04 18.5 65.4 25 -1.7 29
20:00 1019 30.09 848 25.04 18.5 65.2 26 -1.5 29.3
20:05 1019 30.09 848 25.04 18.4 65.1 27 -0.9 30.4
20:10 1019 30.09 849 25.07 18.4 65.1 28 -0.1 31.9
20:15 1019 30.09 849 25.07 18.4 65.2 28 -0.5 31.1
20:20 1019 30.09 849 25.07 18.2 64.8 29 0 32
20:25 1020 30.12 849 25.07 18 64.4 29 -0.1 31.7
20:30 1020 30.12 849 25.07 17.8 64.1 30 -0 32
20:35 1020 30.12 849 25.07 17.6 63.7 31 0.2 32.4
20:40 1020 30.12 849 25.07 17.5 63.4 30 -0.1 31.7
20:45 1020 30.12 849 25.07 17.3 63.1 30 -0.5 31.1
20:50 1020 30.12 849 25.07 17.1 62.8 30 -0.3 31.5
20:55 1020 30.12 849 25.07 16.9 62.5 30 -0.5 31.2
21:00 1020 30.12 849 25.07 16.9 62.3 32 0 32.1
21:05 1020 30.12 849 25.07 16.6 61.9 32 0 32
21:10 1020 30.12 849 25.07 16.5 61.6 32 -0.2 31.6
21:15 1020 30.12 849 25.07 16.4 61.4 32 -0 31.9
21:20 1020 30.12 849 25.07 16.2 61.1 34 0.2 32.4
21:25 1020 30.12 849 25.07 15.9 60.6 35 0.4 32.6
21:30 1020 30.12 850 25.1 15.7 60.2 35 0.3 32.5
21:35 1020 30.12 850 25.1 15.5 59.9 35 0.1 32.2
21:40 1021 30.15 850 25.1 15.3 59.6 35 0.2 32.3
21:45 1021 30.15 850 25.1 15.1 59.3 36 0.4 32.7
21:50 1021 30.15 850 25.1 15 59 37 0.4 32.8
21:55 1021 30.15 850 25.1 14.7 58.5 39 0.9 33.6
22:00 1021 30.15 850 25.1 14.3 57.7 40 1 33.7
22:05 1021 30.15 850 25.1 14.1 57.3 39 0.5 32.9
22:10 1021 30.15 850 25.1 13.7 56.6 42 1.1 33.9
22:15 1021 30.15 850 25.1 13.2 55.7 45 1.5 34.7
22:20 1021 30.15 850 25.1 12.6 54.8 45 1.1 33.9
22:25 1021 30.15 850 25.1 12.6 54.8 44 0.7 33.3
22:30 1021 30.15 850 25.1 12.8 55 44 1 33.7
22:35 1021 30.15 851 25.13 12.6 54.6 46 1.2 34.2
22:40 1021 30.15 851 25.13 12.2 54 49 1.8 35.3
22:45 1021 30.15 851 25.13 11.9 53.4 50 1.9 35.5
22:50 1021 30.15 851 25.13 11.9 53.3 50 1.8 35.2
22:55 1021 30.15 851 25.13 11.8 53.2 51 2 35.6
23:00 1021 30.15 851 25.13 11.7 53 52 2.1 35.8
23:05 1021 30.15 851 25.13 11.7 53 53 2.4 36.3
23:10 1021 30.15 851 25.13 11.6 52.8 52 2.1 35.8
23:15 1022 30.18 851 25.13 11.6 52.9 52 2.1 35.9
23:20 1022 30.18 851 25.13 11.6 52.8 51 1.8 35.2
23:25 1022 30.18 851 25.13 11.6 52.9 52 2.2 35.9
23:30 1022 30.18 851 25.13 11.7 53 51 1.8 35.2
23:35 1022 30.18 851 25.13 11.4 52.5 56 3.1 37.6
23:40 1022 30.18 851 25.13 10.6 51 60 3.1 37.6
23:45 1022 30.18 851 25.13 10.1 50.2 61 3 37.3
23:50 1022 30.18 851 25.13 10.1 50.1 60 2.7 36.9
23:55 1022 30.18 851 25.13 10.1 50.2 59 2.6 36.7
24:00 1022 30.18 851 25.13 10.1 50.1 59 2.5 36.6